createdAt,value
2023-05-19T00:00:32.150Z,101477.69
2023-05-19T00:04:37.906Z,101475.44
2023-05-19T00:08:41.183Z,101469.50
2023-05-19T00:12:44.798Z,101476.72
2023-05-19T00:16:49.032Z,101474.03
2023-05-19T00:20:53.536Z,101477.75
2023-05-19T00:24:56.608Z,101462.22
2023-05-19T00:28:59.664Z,101472.03
2023-05-19T00:33:03.245Z,101483.41
2023-05-19T00:37:07.984Z,101470.31
2023-05-19T00:41:12.064Z,101473.38
2023-05-19T00:45:15.471Z,101475.81
2023-05-19T00:49:18.912Z,101471.25
2023-05-19T00:53:24.593Z,101468.03
2023-05-19T00:57:27.777Z,101472.31
2023-05-19T01:01:32.535Z,101471.59
2023-05-19T01:05:37.167Z,101468.72
2023-05-19T01:09:41.952Z,101467.72
2023-05-19T01:13:45.562Z,101467.56
2023-05-19T01:17:54.707Z,101465.31
2023-05-19T01:22:08.069Z,101464.81
2023-05-19T01:26:19.577Z,101471.97
2023-05-19T01:30:27.991Z,101471.28
2023-05-19T01:34:32.783Z,101466.88
2023-05-19T01:38:36.274Z,101471.97
2023-05-19T01:42:40.661Z,101475.66
2023-05-19T01:46:45.629Z,101478.03
2023-05-19T01:50:48.968Z,101491.75
2023-05-19T01:54:52.511Z,101502.09
2023-05-19T01:59:01.683Z,101499.00
2023-05-19T02:03:10.810Z,101506.50
2023-05-19T02:07:16.637Z,101500.06
2023-05-19T02:11:24.300Z,101490.88
2023-05-19T02:15:31.506Z,101495.00
2023-05-19T02:19:39.985Z,101490.94
2023-05-19T02:23:43.406Z,101479.25
2023-05-19T02:27:46.593Z,101474.13
2023-05-19T02:31:50.006Z,101470.56
2023-05-19T02:35:54.559Z,101456.13
2023-05-19T02:39:57.816Z,101453.88
2023-05-19T02:44:01.178Z,101457.63
2023-05-19T02:48:04.635Z,101467.63
2023-05-19T02:52:09.762Z,101459.56
2023-05-19T02:56:12.933Z,101461.53
2023-05-19T03:00:16.713Z,101466.56
2023-05-19T03:04:20.914Z,101467.59
2023-05-19T03:08:25.468Z,101469.44
2023-05-19T03:12:28.801Z,101473.56
2023-05-19T03:16:32.653Z,101480.22
2023-05-19T03:20:37.558Z,101484.28
2023-05-19T03:24:43.195Z,101483.97
2023-05-19T03:28:47.081Z,101489.38
2023-05-19T03:32:52.307Z,101481.88
2023-05-19T03:36:56.049Z,101479.78
2023-05-19T03:41:00.944Z,101477.53
2023-05-19T03:45:04.207Z,101483.63
2023-05-19T03:49:08.162Z,101479.84
2023-05-19T03:53:31.668Z,101481.47
2023-05-19T03:57:37.912Z,101481.31
2023-05-19T04:01:41.146Z,101492.88
2023-05-19T04:05:44.618Z,101492.53
2023-05-19T04:09:48.864Z,101475.63
2023-05-19T04:13:53.564Z,101483.53
2023-05-19T04:17:57.338Z,101487.38
2023-05-19T04:22:00.847Z,101489.56
2023-05-19T04:26:03.886Z,101485.97
2023-05-19T04:30:09.694Z,101488.06
2023-05-19T04:34:13.495Z,101488.88
2023-05-19T04:38:20.160Z,101490.94
2023-05-19T04:42:26.273Z,101481.97
2023-05-19T04:46:32.963Z,101475.69
2023-05-19T04:50:38.678Z,101466.16
2023-05-19T04:54:41.965Z,101464.13
2023-05-19T04:58:48.419Z,101466.69
2023-05-19T05:02:53.393Z,101463.75
2023-05-19T05:06:58.386Z,101451.31
2023-05-19T05:11:02.660Z,101450.53
2023-05-19T05:15:07.135Z,101445.56
2023-05-19T05:19:12.723Z,101442.22
2023-05-19T05:23:16.946Z,101440.91
2023-05-19T05:27:22.881Z,101438.22
2023-05-19T05:31:26.931Z,101436.59
2023-05-19T05:35:31.835Z,101430.16
2023-05-19T05:39:35.232Z,101437.25
2023-05-19T05:43:38.543Z,101442.59
2023-05-19T05:47:42.614Z,101438.19
2023-05-19T05:52:01.546Z,101430.25
2023-05-19T05:56:12.247Z,101429.28
2023-05-19T06:00:22.515Z,101429.66
2023-05-19T06:04:29.359Z,101421.47
2023-05-19T06:08:33.883Z,101425.19
2023-05-19T06:12:40.183Z,101436.03
2023-05-19T06:16:43.892Z,101435.81
2023-05-19T06:20:47.329Z,101431.28
2023-05-19T06:24:51.836Z,101427.88
2023-05-19T06:28:56.264Z,101445.63
2023-05-19T06:32:59.912Z,101435.97
2023-05-19T06:37:05.066Z,101438.31
2023-05-19T06:41:10.803Z,101434.69
2023-05-19T06:45:14.136Z,101445.38
2023-05-19T06:49:17.363Z,101437.41
2023-05-19T06:53:22.180Z,101439.66
2023-05-19T06:57:29.602Z,101445.00
2023-05-19T07:01:34.386Z,101446.72
2023-05-19T07:05:38.391Z,101439.53
2023-05-19T07:09:41.517Z,101436.69
2023-05-19T07:13:46.108Z,101440.69
2023-05-19T07:17:54.373Z,101441.66
2023-05-19T07:21:59.450Z,101442.31
2023-05-19T07:26:03.014Z,101439.34
2023-05-19T07:30:08.897Z,101444.41
2023-05-19T07:34:12.099Z,101440.16
2023-05-19T07:38:15.162Z,101449.44
2023-05-19T07:42:18.670Z,101443.47
2023-05-19T07:46:23.342Z,101443.75
2023-05-19T07:50:26.734Z,101455.22
2023-05-19T07:54:29.928Z,101444.97
2023-05-19T07:58:32.936Z,101443.66
2023-05-19T08:02:37.777Z,101430.13
2023-05-19T08:06:42.928Z,101432.47
2023-05-19T08:10:46.328Z,101439.03
2023-05-19T08:14:49.617Z,101429.63
2023-05-19T08:18:55.194Z,101432.56
2023-05-19T08:22:58.415Z,101430.84
2023-05-19T08:27:01.930Z,101424.19
2023-05-19T08:31:05.985Z,101426.34
2023-05-19T08:35:11.254Z,101436.31
2023-05-19T08:39:16.395Z,101432.38
2023-05-19T08:43:19.802Z,101433.47
2023-05-19T08:47:23.586Z,101425.72
2023-05-19T08:51:33.501Z,101412.03
2023-05-19T08:55:38.259Z,101416.06
2023-05-19T08:59:42.402Z,101403.56
2023-05-19T09:03:46.356Z,101404.50
2023-05-19T09:07:51.084Z,101402.09
2023-05-19T09:11:54.172Z,101394.22
2023-05-19T09:15:58.523Z,101393.84
2023-05-19T09:20:03.102Z,101398.97
2023-05-19T09:24:08.460Z,101383.91
2023-05-19T09:28:11.978Z,101383.06
2023-05-19T09:32:25.378Z,101368.31
2023-05-19T09:36:30.328Z,101375.00
2023-05-19T09:40:35.238Z,101374.03
2023-05-19T09:44:38.785Z,101370.44
2023-05-19T09:48:43.014Z,101361.38
2023-05-19T09:52:46.480Z,101364.06
2023-05-19T09:56:58.834Z,101365.50
2023-05-19T10:01:02.624Z,101367.97
2023-05-19T10:05:06.731Z,101373.88
2023-05-19T10:09:09.993Z,101366.56
2023-05-19T10:13:14.979Z,101364.69
2023-05-19T10:17:18.361Z,101360.28
2023-05-19T10:21:21.678Z,101367.19
2023-05-19T10:25:25.197Z,101364.09
2023-05-19T10:29:32.428Z,101356.50
2023-05-19T10:33:39.978Z,101361.44
2023-05-19T10:37:46.450Z,101358.56
2023-05-19T10:41:55.060Z,101364.22
2023-05-19T10:45:59.951Z,101347.41
2023-05-19T10:50:03.295Z,101350.53
2023-05-19T10:54:12.054Z,101342.63
2023-05-19T10:58:16.139Z,101345.81
2023-05-19T11:02:37.840Z,101348.09
2023-05-19T11:06:42.573Z,101337.72
2023-05-19T11:10:47.278Z,101341.06
2023-05-19T11:14:53.630Z,101342.75
2023-05-19T11:18:57.311Z,101347.16
2023-05-19T11:23:08.796Z,101337.72
2023-05-19T11:27:19.158Z,101347.28
2023-05-19T11:31:25.488Z,101340.69
2023-05-19T11:35:30.121Z,101332.47
2023-05-19T11:39:34.777Z,101324.44
2023-05-19T11:43:37.801Z,101329.09
2023-05-19T11:47:57.267Z,101323.78
2023-05-19T11:52:04.729Z,101319.69
2023-05-19T11:56:09.839Z,101320.16
2023-05-19T12:00:14.837Z,101311.00
2023-05-19T12:04:18.183Z,101305.28
2023-05-19T12:08:21.759Z,101300.41
2023-05-19T12:12:26.325Z,101305.00
2023-05-19T12:16:35.885Z,101302.25
2023-05-19T12:20:39.416Z,101301.50
2023-05-19T12:24:43.981Z,101303.22
2023-05-19T12:28:48.576Z,101298.34
2023-05-19T12:32:53.181Z,101301.94
2023-05-19T12:36:56.540Z,101292.28
2023-05-19T12:41:00.700Z,101282.34
2023-05-19T12:45:05.696Z,101285.06
2023-05-19T12:49:09.592Z,101284.38
2023-05-19T12:53:14.034Z,101277.34
2023-05-19T12:57:17.908Z,101285.28
2023-05-19T13:01:24.448Z,101267.78
2023-05-19T13:05:28.270Z,101270.09
2023-05-19T13:09:35.574Z,101270.53
2023-05-19T13:13:39.251Z,101266.41
2023-05-19T13:18:02.807Z,101253.41
2023-05-19T13:22:06.393Z,101264.47
2023-05-19T13:26:11.740Z,101258.19
2023-05-19T13:30:15.869Z,101265.28
2023-05-19T13:34:20.569Z,101257.06
2023-05-19T13:38:23.617Z,101247.31
2023-05-19T13:42:26.854Z,101249.31
2023-05-19T13:46:43.913Z,101240.94
2023-05-19T13:50:49.958Z,101241.19
2023-05-19T13:54:54.702Z,101231.13
2023-05-19T13:58:57.992Z,101229.16
2023-05-19T14:03:02.118Z,101232.53
2023-05-19T14:07:07.877Z,101226.09
2023-05-19T14:11:11.354Z,101216.66
2023-05-19T14:15:15.355Z,101228.38
2023-05-19T14:19:18.904Z,101231.97
2023-05-19T14:23:23.630Z,101227.47
2023-05-19T14:27:26.786Z,101226.38
2023-05-19T14:31:30.167Z,101216.91
2023-05-19T14:35:33.968Z,101219.66
2023-05-19T14:39:38.508Z,101215.22
2023-05-19T14:43:43.207Z,101220.81
2023-05-19T14:47:47.704Z,101212.44
2023-05-19T14:51:51.462Z,101212.91
2023-05-19T14:55:56.181Z,101213.72
2023-05-19T14:59:59.445Z,101206.59
2023-05-19T15:04:02.670Z,101200.03
2023-05-19T15:08:06.591Z,101201.47
2023-05-19T15:12:12.489Z,101201.22
2023-05-19T15:16:18.121Z,101199.63
2023-05-19T15:20:21.608Z,101186.69
2023-05-19T15:24:25.556Z,101196.22
2023-05-19T15:28:30.080Z,101183.09
2023-05-19T15:32:34.838Z,101179.31
2023-05-19T15:36:38.374Z,101180.16
2023-05-19T15:40:43.169Z,101190.03
2023-05-19T15:44:47.931Z,101173.31
2023-05-19T15:48:51.166Z,101172.19
2023-05-19T15:52:55.261Z,101173.63
2023-05-19T15:56:59.057Z,101171.25
2023-05-19T16:01:04.500Z,101166.22
2023-05-19T16:05:08.470Z,101166.03
2023-05-19T16:09:13.393Z,101163.25
2023-05-19T16:13:16.759Z,101148.75
2023-05-19T16:17:21.225Z,101143.13
2023-05-19T16:21:24.453Z,101145.09
2023-05-19T16:25:28.001Z,101147.34
2023-05-19T16:29:31.164Z,101132.53
2023-05-19T16:33:35.878Z,101137.13
2023-05-19T16:37:39.608Z,101136.72
2023-05-19T16:41:42.828Z,101133.66
2023-05-19T16:45:46.626Z,101134.72
2023-05-19T16:49:51.675Z,101130.59
2023-05-19T16:53:55.010Z,101124.44
2023-05-19T16:57:58.237Z,101129.47
2023-05-19T17:02:01.572Z,101121.94
2023-05-19T17:06:06.336Z,101120.78
2023-05-19T17:10:10.554Z,101121.28
2023-05-19T17:14:13.992Z,101116.88
2023-05-19T17:18:17.126Z,101120.16
2023-05-19T17:22:22.645Z,101121.75
2023-05-19T17:26:26.816Z,101122.81
2023-05-19T17:30:30.704Z,101122.00
2023-05-19T17:34:34.253Z,101123.84
2023-05-19T17:38:40.534Z,101126.75
2023-05-19T17:42:44.044Z,101130.06
2023-05-19T17:46:47.924Z,101133.75
2023-05-19T17:50:51.206Z,101133.56
2023-05-19T17:54:56.246Z,101131.16
2023-05-19T17:58:59.718Z,101125.66
2023-05-19T18:03:04.970Z,101134.72
2023-05-19T18:07:10.308Z,101130.78
2023-05-19T18:11:16.243Z,101129.41
2023-05-19T18:15:19.364Z,101132.66
2023-05-19T18:19:22.484Z,101137.31
2023-05-19T18:23:25.881Z,101129.50
2023-05-19T18:27:31.591Z,101131.81
2023-05-19T18:31:34.913Z,101149.25
2023-05-19T18:35:38.202Z,101139.63
2023-05-19T18:39:41.362Z,101140.72
2023-05-19T18:43:45.866Z,101143.25
2023-05-19T18:47:49.341Z,101142.59
2023-05-19T18:51:54.663Z,101147.72
2023-05-19T18:55:57.916Z,101144.13
2023-05-19T19:00:02.563Z,101142.78
2023-05-19T19:04:06.203Z,101152.03
2023-05-19T19:08:09.905Z,101152.56
2023-05-19T19:12:13.401Z,101158.59
2023-05-19T19:16:18.332Z,101152.22
2023-05-19T19:20:21.490Z,101163.84
2023-05-19T19:24:24.672Z,101159.50
2023-05-19T19:28:27.952Z,101166.75
2023-05-19T19:32:32.744Z,101166.44
2023-05-19T19:36:36.201Z,101169.75
2023-05-19T19:40:39.397Z,101168.25
2023-05-19T19:44:42.545Z,101158.94
2023-05-19T19:48:47.387Z,101171.78
2023-05-19T19:52:50.596Z,101176.84
2023-05-19T19:56:54.647Z,101180.06
2023-05-19T20:00:58.921Z,101184.03
2023-05-19T20:05:03.819Z,101189.56
2023-05-19T20:09:07.209Z,101184.66
2023-05-19T20:13:10.888Z,101190.94
2023-05-19T20:17:14.222Z,101186.47
2023-05-19T20:21:20.151Z,101193.63
2023-05-19T20:25:23.647Z,101195.97
2023-05-19T20:29:27.723Z,101193.34
2023-05-19T20:33:31.878Z,101190.41
2023-05-19T20:37:36.484Z,101197.00
2023-05-19T20:41:39.956Z,101201.28
2023-05-19T20:45:43.944Z,101202.56
2023-05-19T20:49:48.407Z,101199.06
2023-05-19T20:53:53.001Z,101195.25
2023-05-19T20:57:56.096Z,101204.25
2023-05-19T21:01:59.444Z,101192.88
2023-05-19T21:06:02.604Z,101202.22
2023-05-19T21:10:08.149Z,101200.16
2023-05-19T21:14:11.590Z,101211.19
2023-05-19T21:18:15.078Z,101208.94
2023-05-19T21:22:18.514Z,101208.25
2023-05-19T21:26:23.240Z,101209.31
2023-05-19T21:30:26.929Z,101206.69
2023-05-19T21:34:30.270Z,101198.50
2023-05-19T21:38:33.428Z,101201.28
2023-05-19T21:42:37.774Z,101205.53
2023-05-19T21:46:40.896Z,101210.41
2023-05-19T21:50:44.400Z,101206.22
2023-05-19T21:54:48.070Z,101217.09
2023-05-19T21:58:53.300Z,101213.09
2023-05-19T22:02:56.547Z,101209.13
2023-05-19T22:06:59.901Z,101217.41
2023-05-19T22:11:03.419Z,101213.84
2023-05-19T22:15:09.282Z,101218.31
2023-05-19T22:19:12.975Z,101216.00
2023-05-19T22:23:16.398Z,101217.69
2023-05-19T22:27:19.555Z,101217.69
2023-05-19T22:31:24.511Z,101221.06
2023-05-19T22:35:27.814Z,101209.66
2023-05-19T22:39:34.381Z,101210.94
2023-05-19T22:43:38.565Z,101206.69
2023-05-19T22:47:43.699Z,101212.38
2023-05-19T22:51:46.766Z,101205.63
2023-05-19T22:55:50.048Z,101209.84
2023-05-19T22:59:53.222Z,101203.31
2023-05-19T23:03:58.043Z,101196.56
2023-05-19T23:08:01.156Z,101200.75
2023-05-19T23:12:04.259Z,101199.91
2023-05-19T23:16:07.912Z,101205.38
2023-05-19T23:20:13.755Z,101204.94
2023-05-19T23:24:17.325Z,101193.56
2023-05-19T23:28:20.532Z,101196.47
2023-05-19T23:32:23.810Z,101191.41
2023-05-19T23:36:28.670Z,101193.50
2023-05-19T23:40:31.924Z,101191.59
2023-05-19T23:44:35.340Z,101189.09
2023-05-19T23:48:38.410Z,101194.75
2023-05-19T23:52:42.901Z,101178.72
2023-05-19T23:56:46.305Z,101177.84
